createdAt,value
2022-10-25T00:01:35.845Z,0.01
2022-10-25T00:04:09.495Z,0.02
2022-10-25T00:06:43.402Z,-0.01
2022-10-25T00:09:16.809Z,0.00
2022-10-25T00:14:31.635Z,0.07
2022-10-25T00:17:04.914Z,-0.06
2022-10-25T00:19:38.511Z,-0.06
2022-10-25T00:22:12.013Z,-0.05
2022-10-25T00:24:45.573Z,-0.04
2022-10-25T00:27:19.077Z,-0.07
2022-10-25T00:29:53.108Z,-0.08
2022-10-25T00:32:26.171Z,-0.11
2022-10-25T00:34:59.867Z,-0.14
2022-10-25T00:37:34.470Z,-0.16
2022-10-25T00:40:10.221Z,-0.20
2022-10-25T00:42:43.541Z,-0.23
2022-10-25T00:45:24.472Z,-0.26
2022-10-25T00:48:02.231Z,-0.29
2022-10-25T00:50:39.446Z,-0.32
2022-10-25T00:53:15.703Z,-0.35
2022-10-25T00:55:52.353Z,-0.42
2022-10-25T00:58:28.597Z,-0.46
2022-10-25T01:01:02.631Z,-0.48
2022-10-25T01:03:38.279Z,-0.50
2022-10-25T01:06:14.756Z,-0.50
2022-10-25T01:08:49.650Z,-0.54
2022-10-25T01:11:23.452Z,-0.54
2022-10-25T01:13:57.841Z,-0.54
2022-10-25T01:16:35.850Z,-0.53
2022-10-25T01:19:14.787Z,-0.54
2022-10-25T01:21:52.701Z,-0.55
2022-10-25T01:24:48.205Z,-0.56
2022-10-25T01:30:56.506Z,-0.44
2022-10-25T01:33:32.894Z,-0.57
2022-10-25T01:36:10.186Z,-0.60
2022-10-25T01:38:46.871Z,-0.63
2022-10-25T01:41:25.793Z,-0.67
2022-10-25T01:44:06.929Z,-0.68
2022-10-25T01:46:43.822Z,-0.71
2022-10-25T01:49:20.268Z,-0.73
2022-10-25T01:51:53.741Z,-0.75
2022-10-25T01:54:28.159Z,-0.78
2022-10-25T01:57:34.461Z,-0.82
2022-10-25T02:00:14.938Z,-0.89
2022-10-25T02:06:11.545Z,-0.95
2022-10-25T02:08:47.664Z,-1.14
2022-10-25T02:11:25.063Z,-1.21
2022-10-25T02:14:08.075Z,-1.25
2022-10-25T02:16:45.542Z,-1.27
2022-10-25T02:19:22.050Z,-1.31
2022-10-25T02:21:56.592Z,-1.37
2022-10-25T02:24:33.314Z,-1.41
2022-10-25T02:27:08.178Z,-1.45
2022-10-25T02:29:42.957Z,-1.48
2022-10-25T02:32:16.590Z,-1.51
2022-10-25T02:34:51.968Z,-1.56
2022-10-25T02:37:25.275Z,-1.59
2022-10-25T02:39:59.479Z,-1.61
2022-10-25T02:42:34.171Z,-1.63
2022-10-25T02:45:09.483Z,-1.66
2022-10-25T02:47:42.844Z,-1.67
2022-10-25T02:50:16.514Z,-1.64
2022-10-25T02:52:50.217Z,-1.62
2022-10-25T02:55:23.574Z,-1.61
2022-10-25T02:57:57.239Z,-1.60
2022-10-25T03:00:30.874Z,-1.58
2022-10-25T03:03:04.074Z,-1.58
2022-10-25T03:05:37.652Z,-1.59
2022-10-25T03:08:11.204Z,-1.54
2022-10-25T03:10:44.605Z,-1.55
2022-10-25T03:13:18.637Z,-1.56
2022-10-25T03:15:52.155Z,-1.57
2022-10-25T03:18:25.621Z,-1.57
2022-10-25T03:21:00.707Z,-1.58
2022-10-25T03:23:34.187Z,-1.56
2022-10-25T03:26:08.078Z,-1.55
2022-10-25T03:28:41.385Z,-1.53
2022-10-25T03:31:16.374Z,-1.50
2022-10-25T03:33:51.301Z,-1.50
2022-10-25T03:36:24.623Z,-1.50
2022-10-25T03:38:58.155Z,-1.53
2022-10-25T03:41:31.621Z,-1.53
2022-10-25T03:44:05.303Z,-1.54
2022-10-25T03:46:38.842Z,-1.54
2022-10-25T03:49:12.096Z,-1.54
2022-10-25T03:51:45.387Z,-1.58
2022-10-25T03:54:18.729Z,-1.63
2022-10-25T03:56:51.869Z,-1.69
2022-10-25T03:59:25.306Z,-1.74
2022-10-25T04:01:58.754Z,-1.78
2022-10-25T04:04:31.965Z,-1.83
2022-10-25T04:07:05.904Z,-1.89
2022-10-25T04:09:39.393Z,-1.90
2022-10-25T04:12:12.806Z,-1.89
2022-10-25T04:14:45.994Z,-1.87
2022-10-25T04:17:19.291Z,-1.84
2022-10-25T04:19:52.756Z,-1.84
2022-10-25T04:22:26.327Z,-1.84
2022-10-25T04:24:59.575Z,-1.84
2022-10-25T04:27:34.101Z,-1.84
2022-10-25T04:30:08.806Z,-1.82
2022-10-25T04:32:42.084Z,-1.78
2022-10-25T04:35:15.724Z,-1.75
2022-10-25T04:37:49.667Z,-1.71
2022-10-25T04:40:24.907Z,-1.75
2022-10-25T04:42:59.779Z,-1.68
2022-10-25T04:45:33.153Z,-1.64
2022-10-25T04:48:07.241Z,-1.61
2022-10-25T04:50:41.207Z,-1.57
2022-10-25T04:53:14.819Z,-1.53
2022-10-25T04:55:50.489Z,-1.50
2022-10-25T04:58:27.424Z,-1.46
2022-10-25T05:01:02.200Z,-1.41
2022-10-25T05:03:35.955Z,-1.39
2022-10-25T05:06:12.712Z,-1.35
2022-10-25T05:08:47.761Z,-1.34
2022-10-25T05:11:23.720Z,-1.30
2022-10-25T05:13:58.209Z,-1.27
2022-10-25T05:16:33.437Z,-1.24
2022-10-25T05:19:07.101Z,-1.21
2022-10-25T05:21:40.555Z,-1.15
2022-10-25T05:24:13.864Z,-1.11
2022-10-25T05:26:46.924Z,-1.07
2022-10-25T05:29:20.577Z,-1.01
2022-10-25T05:31:54.166Z,-0.90
2022-10-25T05:34:27.518Z,-0.70
2022-10-25T05:37:01.187Z,-0.39
2022-10-25T05:39:34.488Z,0.05
2022-10-25T05:42:07.746Z,0.74
2022-10-25T05:44:41.306Z,1.64
2022-10-25T05:47:15.140Z,2.66
2022-10-25T05:49:48.463Z,3.73
2022-10-25T05:52:21.673Z,4.56
2022-10-25T05:54:55.103Z,5.12
2022-10-25T05:57:28.501Z,5.92
2022-10-25T06:00:01.889Z,6.91
2022-10-25T06:02:36.958Z,7.92
2022-10-25T06:05:11.341Z,8.86
2022-10-25T06:07:44.887Z,9.62
2022-10-25T06:10:21.239Z,10.25
2022-10-25T06:12:55.204Z,10.46
2022-10-25T06:15:28.291Z,10.32
2022-10-25T06:18:01.554Z,10.16
2022-10-25T06:20:35.680Z,10.25
2022-10-25T06:23:10.539Z,10.39
2022-10-25T06:25:44.120Z,10.57
2022-10-25T06:28:18.714Z,11.13
2022-10-25T06:30:51.964Z,11.97
2022-10-25T06:33:27.905Z,12.89
2022-10-25T06:36:01.766Z,13.68
2022-10-25T06:38:35.580Z,14.39
2022-10-25T06:41:11.274Z,14.94
2022-10-25T06:43:44.815Z,15.37
2022-10-25T06:46:22.336Z,15.73
2022-10-25T06:48:57.362Z,16.11
2022-10-25T06:51:32.403Z,16.47
2022-10-25T06:54:08.918Z,16.78
2022-10-25T06:56:42.227Z,17.19
2022-10-25T06:59:15.367Z,17.68
2022-10-25T07:01:48.690Z,18.05
2022-10-25T07:04:22.110Z,18.13
2022-10-25T07:06:55.645Z,18.48
2022-10-25T07:09:29.593Z,18.98
2022-10-25T07:12:02.943Z,19.43
2022-10-25T07:14:36.541Z,19.78
2022-10-25T07:17:09.804Z,20.12
2022-10-25T07:19:43.341Z,20.46
2022-10-25T07:22:16.403Z,20.78
2022-10-25T07:24:50.017Z,21.12
2022-10-25T07:27:24.007Z,21.49
2022-10-25T07:29:57.575Z,21.81
2022-10-25T07:32:31.085Z,22.05
2022-10-25T07:35:04.641Z,22.17
2022-10-25T07:37:37.775Z,22.36
2022-10-25T07:40:12.906Z,22.71
2022-10-25T07:42:46.220Z,23.00
2022-10-25T07:45:22.288Z,23.24
2022-10-25T07:47:54.729Z,23.54
2022-10-25T07:50:28.109Z,23.82
2022-10-25T07:53:01.604Z,24.01
2022-10-25T07:55:34.967Z,24.25
2022-10-25T07:58:09.806Z,24.48
2022-10-25T08:00:43.217Z,24.66
2022-10-25T08:03:17.556Z,24.83
2022-10-25T08:05:51.457Z,25.01
2022-10-25T08:08:25.403Z,25.26
2022-10-25T08:10:59.709Z,25.38
2022-10-25T08:13:32.954Z,25.39
2022-10-25T08:16:07.471Z,25.55
2022-10-25T08:18:40.753Z,25.86
2022-10-25T08:21:14.417Z,26.23
2022-10-25T08:23:47.516Z,26.34
2022-10-25T08:26:24.078Z,26.30
2022-10-25T08:28:59.494Z,26.30
2022-10-25T08:31:32.728Z,26.55
2022-10-25T08:34:06.204Z,26.85
2022-10-25T08:36:39.497Z,26.11
2022-10-25T08:39:12.818Z,24.60
2022-10-25T08:41:49.928Z,23.26
2022-10-25T08:44:30.213Z,22.69
2022-10-25T08:47:06.790Z,23.37
2022-10-25T08:49:45.483Z,23.60
2022-10-25T08:52:21.889Z,23.98
2022-10-25T08:54:59.273Z,24.24
2022-10-25T08:57:34.781Z,23.66
2022-10-25T09:00:13.449Z,23.03
2022-10-25T09:02:50.239Z,21.78
2022-10-25T09:05:35.901Z,22.20
2022-10-25T09:08:30.640Z,23.24
2022-10-25T09:11:08.888Z,24.65
2022-10-25T09:13:45.981Z,26.09
2022-10-25T09:16:21.796Z,25.68
2022-10-25T09:18:57.210Z,25.16
2022-10-25T09:24:05.942Z,22.37
2022-10-25T09:26:44.794Z,21.24
2022-10-25T09:29:24.778Z,21.56
2022-10-25T09:32:00.698Z,22.80
2022-10-25T09:34:34.797Z,24.23
2022-10-25T09:37:13.930Z,25.01
2022-10-25T09:39:50.608Z,25.51
2022-10-25T09:42:27.477Z,25.16
2022-10-25T09:45:03.449Z,24.07
2022-10-25T09:47:39.998Z,23.81
2022-10-25T09:50:18.894Z,23.54
2022-10-25T09:52:57.046Z,23.88
2022-10-25T09:55:39.598Z,24.11
2022-10-25T09:58:18.346Z,23.69
2022-10-25T10:00:53.262Z,21.84
2022-10-25T10:03:30.617Z,20.85
2022-10-25T10:06:06.874Z,21.26
2022-10-25T10:08:42.850Z,20.83
2022-10-25T10:11:19.639Z,19.79
2022-10-25T10:13:55.737Z,18.22
2022-10-25T10:16:34.484Z,17.18
2022-10-25T10:19:21.592Z,17.07
2022-10-25T10:21:57.620Z,17.28
2022-10-25T10:24:33.060Z,16.78
2022-10-25T10:27:09.404Z,16.38
2022-10-25T10:29:51.331Z,15.75
2022-10-25T10:32:28.782Z,15.07
2022-10-25T10:35:03.991Z,14.37
2022-10-25T10:37:38.133Z,14.30
2022-10-25T10:40:26.037Z,14.11
2022-10-25T10:42:59.274Z,14.04
2022-10-25T10:45:35.228Z,14.03
2022-10-25T10:48:12.972Z,13.94
2022-10-25T10:50:47.165Z,14.04
2022-10-25T10:53:25.826Z,14.37
2022-10-25T10:56:00.686Z,14.28
2022-10-25T10:58:35.674Z,14.34
2022-10-25T11:01:11.701Z,14.85
2022-10-25T11:03:59.834Z,15.46
2022-10-25T11:06:33.126Z,15.90
2022-10-25T11:09:18.282Z,15.94
2022-10-25T11:12:08.579Z,16.32
2022-10-25T11:14:42.372Z,16.94
2022-10-25T11:17:19.271Z,17.46
2022-10-25T11:20:17.256Z,17.90
2022-10-25T11:22:57.956Z,18.10
2022-10-25T11:25:37.563Z,18.66
2022-10-25T11:28:30.877Z,19.11
2022-10-25T11:31:08.579Z,19.73
2022-10-25T11:33:45.048Z,20.36
2022-10-25T11:36:43.028Z,21.18
2022-10-25T11:39:28.821Z,21.64
2022-10-25T11:42:06.592Z,22.20
2022-10-25T11:45:03.995Z,22.42
2022-10-25T11:47:42.374Z,23.12
2022-10-25T11:50:21.645Z,24.34
2022-10-25T11:53:16.363Z,24.65
2022-10-25T11:55:52.672Z,24.60
2022-10-25T11:58:34.172Z,24.69
2022-10-25T12:01:12.630Z,24.26
2022-10-25T12:04:16.568Z,24.55
2022-10-25T12:06:53.515Z,25.00
2022-10-25T12:09:29.902Z,25.35
2022-10-25T12:12:06.812Z,25.68
2022-10-25T12:14:43.256Z,25.76
2022-10-25T12:17:19.843Z,25.60
2022-10-25T12:19:55.807Z,25.64
2022-10-25T12:22:32.052Z,25.31
2022-10-25T12:25:08.696Z,25.12
2022-10-25T12:27:45.967Z,24.98
2022-10-25T12:30:21.289Z,24.05
2022-10-25T12:32:59.232Z,23.28
2022-10-25T12:35:35.175Z,22.18
2022-10-25T12:40:55.986Z,21.58
2022-10-25T12:43:32.829Z,20.99
2022-10-25T12:46:22.718Z,20.47
2022-10-25T12:52:35.880Z,20.17
2022-10-25T12:58:37.019Z,18.88
2022-10-25T13:01:19.620Z,18.40
2022-10-25T13:04:11.969Z,18.18
2022-10-25T13:06:47.970Z,18.03
2022-10-25T13:09:26.975Z,17.77
2022-10-25T13:12:02.060Z,17.79
2022-10-25T13:14:38.235Z,17.71
2022-10-25T13:17:49.503Z,17.67
2022-10-25T13:20:46.636Z,17.56
2022-10-25T13:24:05.140Z,17.30
2022-10-25T13:27:21.683Z,17.06
2022-10-25T13:30:36.162Z,16.72
2022-10-25T13:33:32.404Z,16.33
2022-10-25T13:36:07.394Z,15.85
2022-10-25T13:38:41.324Z,15.43
2022-10-25T13:41:17.794Z,15.20
2022-10-25T13:44:01.617Z,14.77
2022-10-25T13:46:39.694Z,13.94
2022-10-25T13:49:33.845Z,13.03
2022-10-25T13:52:09.716Z,12.20
2022-10-25T13:54:47.972Z,11.43
2022-10-25T13:57:49.457Z,10.89
2022-10-25T14:00:41.014Z,10.47
2022-10-25T14:03:48.524Z,9.97
2022-10-25T14:06:28.232Z,9.48
2022-10-25T14:09:23.427Z,9.08
2022-10-25T14:12:00.071Z,8.77
2022-10-25T14:14:36.400Z,8.40
2022-10-25T14:17:15.455Z,8.20
2022-10-25T14:19:51.771Z,8.08
2022-10-25T14:22:31.862Z,7.93
2022-10-25T14:25:08.096Z,7.83
2022-10-25T14:27:41.660Z,7.70
2022-10-25T14:30:25.963Z,7.58
2022-10-25T14:33:02.405Z,7.48
2022-10-25T14:35:37.768Z,7.33
2022-10-25T14:38:19.150Z,7.18
2022-10-25T14:40:57.913Z,7.00
2022-10-25T14:43:33.433Z,6.75
2022-10-25T14:46:15.613Z,6.52
2022-10-25T14:48:51.173Z,6.36
2022-10-25T14:51:27.837Z,6.17
2022-10-25T14:54:04.951Z,6.06
2022-10-25T14:56:42.010Z,6.00
2022-10-25T14:59:24.700Z,5.91
2022-10-25T15:02:01.550Z,5.79
2022-10-25T15:04:37.511Z,5.70
2022-10-25T15:07:18.582Z,5.59
2022-10-25T15:09:52.826Z,5.54
2022-10-25T15:12:27.451Z,5.43
2022-10-25T15:15:02.932Z,5.08
2022-10-25T15:17:37.449Z,4.87
2022-10-25T15:20:31.317Z,4.78
2022-10-25T15:23:07.489Z,4.72
2022-10-25T15:25:41.488Z,4.40
2022-10-25T15:28:16.269Z,4.17
2022-10-25T15:31:01.293Z,3.97
2022-10-25T15:33:35.503Z,3.83
2022-10-25T15:36:21.255Z,3.67
2022-10-25T15:39:11.725Z,3.50
2022-10-25T15:41:36.966Z,3.39
2022-10-25T15:44:10.129Z,3.25
2022-10-25T15:46:48.335Z,3.13
2022-10-25T15:49:22.003Z,3.12
2022-10-25T15:51:56.306Z,3.04
2022-10-25T15:54:29.967Z,2.96
2022-10-25T15:57:03.759Z,2.86
2022-10-25T15:59:41.410Z,2.79
2022-10-25T16:02:21.618Z,2.75
2022-10-25T16:04:55.595Z,2.71
2022-10-25T16:07:31.150Z,2.64
2022-10-25T16:10:06.464Z,2.60
2022-10-25T16:12:48.058Z,2.58
2022-10-25T16:15:22.210Z,2.60
2022-10-25T16:17:56.137Z,2.54
2022-10-25T16:20:31.713Z,2.48
2022-10-25T16:23:07.615Z,2.40
2022-10-25T16:25:43.820Z,2.38
2022-10-25T16:28:19.835Z,2.33
2022-10-25T16:30:53.052Z,2.28
2022-10-25T16:33:27.825Z,2.22
2022-10-25T16:36:04.069Z,2.15
2022-10-25T16:38:40.073Z,2.10
2022-10-25T16:41:25.719Z,2.04
2022-10-25T16:43:59.945Z,1.99
2022-10-25T16:46:33.435Z,1.95
2022-10-25T16:49:08.712Z,1.86
2022-10-25T16:51:44.436Z,1.79
2022-10-25T16:54:21.911Z,1.74
2022-10-25T16:56:53.418Z,1.69
2022-10-25T16:59:26.928Z,1.62
2022-10-25T17:02:00.571Z,1.56
2022-10-25T17:04:34.084Z,1.51
2022-10-25T17:07:07.550Z,1.46
2022-10-25T17:09:41.895Z,1.42
2022-10-25T17:12:15.890Z,1.42
2022-10-25T17:14:49.076Z,1.39
2022-10-25T17:19:56.486Z,1.26
2022-10-25T17:22:29.696Z,1.25
2022-10-25T17:25:03.298Z,1.18
2022-10-25T17:27:39.007Z,1.16
2022-10-25T17:30:16.222Z,1.11
2022-10-25T17:32:49.929Z,1.03
2022-10-25T17:35:28.577Z,0.96
2022-10-25T17:37:59.546Z,0.90
2022-10-25T17:40:33.006Z,0.83
2022-10-25T17:43:06.507Z,0.80
2022-10-25T17:45:40.175Z,0.79
2022-10-25T17:48:14.027Z,0.78
2022-10-25T17:50:49.435Z,0.76
2022-10-25T17:53:22.896Z,0.72
2022-10-25T17:55:56.542Z,0.68
2022-10-25T17:58:30.485Z,0.71
2022-10-25T18:01:07.613Z,0.63
2022-10-25T18:03:41.667Z,0.60
2022-10-25T18:06:17.464Z,0.61
2022-10-25T18:08:54.873Z,0.55
2022-10-25T18:11:29.984Z,0.63
2022-10-25T18:14:04.215Z,0.57
2022-10-25T18:16:37.512Z,0.51
2022-10-25T18:19:13.381Z,0.41
2022-10-25T18:21:47.120Z,0.36
2022-10-25T18:24:20.750Z,0.37
2022-10-25T18:26:54.363Z,0.31
2022-10-25T18:29:27.877Z,0.28
2022-10-25T18:32:01.319Z,0.27
2022-10-25T18:34:34.825Z,0.18
2022-10-25T18:37:13.678Z,0.18
2022-10-25T18:39:48.577Z,0.09
2022-10-25T18:42:22.511Z,0.08
2022-10-25T18:44:57.353Z,0.10
2022-10-25T18:50:33.330Z,0.07
2022-10-25T18:53:16.277Z,0.00
2022-10-25T18:55:53.859Z,-0.04
2022-10-25T18:58:32.144Z,-0.03
2022-10-25T19:01:34.499Z,-0.06
2022-10-25T19:04:21.037Z,-0.04
2022-10-25T19:06:58.316Z,-0.07
2022-10-25T19:09:32.013Z,-0.05
2022-10-25T19:12:09.825Z,-0.01
2022-10-25T19:14:44.861Z,-0.10
2022-10-25T19:17:28.971Z,-0.12
2022-10-25T19:20:06.260Z,-0.12
2022-10-25T19:22:42.096Z,-0.18
2022-10-25T19:25:18.089Z,-0.20
2022-10-25T19:27:53.323Z,-0.23
2022-10-25T19:30:34.261Z,-0.19
2022-10-25T19:36:08.039Z,-0.21
2022-10-25T19:38:45.949Z,-0.28
2022-10-25T19:41:19.203Z,-0.28
2022-10-25T19:43:53.008Z,-0.28
2022-10-25T19:46:26.598Z,-0.32
2022-10-25T19:49:00.956Z,-0.41
2022-10-25T19:51:34.233Z,-0.43
2022-10-25T19:54:07.832Z,-0.46
2022-10-25T19:56:41.560Z,-0.54
2022-10-25T19:59:15.960Z,-0.53
2022-10-25T20:01:49.999Z,-0.61
2022-10-25T20:04:23.605Z,-0.63
2022-10-25T20:06:57.113Z,-0.68
2022-10-25T20:09:31.573Z,-0.72
2022-10-25T20:12:05.508Z,-0.72
2022-10-25T20:14:39.161Z,-0.69
2022-10-25T20:17:13.598Z,-0.73
2022-10-25T20:19:47.357Z,-0.72
2022-10-25T20:22:24.115Z,-0.75
2022-10-25T20:24:58.053Z,-0.75
2022-10-25T20:27:32.674Z,-0.78
2022-10-25T20:30:08.745Z,-0.79
2022-10-25T20:32:42.189Z,-0.80
2022-10-25T20:35:16.196Z,-0.80
2022-10-25T20:37:50.197Z,-0.79
2022-10-25T20:40:24.357Z,-0.82
2022-10-25T20:42:58.661Z,-0.84
2022-10-25T20:45:33.208Z,-0.84
2022-10-25T20:48:07.261Z,-0.85
2022-10-25T20:50:42.727Z,-0.88
2022-10-25T20:53:16.054Z,-0.92
2022-10-25T20:55:50.501Z,-0.92
2022-10-25T20:58:24.934Z,-0.94
2022-10-25T21:03:41.919Z,-0.82
2022-10-25T21:06:15.592Z,-0.90
2022-10-25T21:08:48.946Z,-0.93
2022-10-25T21:11:22.159Z,-0.96
2022-10-25T21:13:55.850Z,-0.98
2022-10-25T21:16:29.513Z,-0.96
2022-10-25T21:19:05.340Z,-1.00
2022-10-25T21:21:40.276Z,-1.02
2022-10-25T21:24:15.404Z,-1.03
2022-10-25T21:26:49.428Z,-1.06
2022-10-25T21:29:23.042Z,-1.10
2022-10-25T21:31:56.589Z,-1.10
2022-10-25T21:34:29.959Z,-1.08
2022-10-25T21:37:03.101Z,-1.05
2022-10-25T21:39:36.170Z,-1.04
2022-10-25T21:42:09.787Z,-1.02
2022-10-25T21:44:43.111Z,-1.02
2022-10-25T21:47:16.535Z,-1.04
2022-10-25T21:49:50.193Z,-1.03
2022-10-25T21:52:23.625Z,-1.02
2022-10-25T21:54:56.912Z,-0.98
2022-10-25T21:57:30.489Z,-0.93
2022-10-25T22:00:04.169Z,-0.82
2022-10-25T22:02:39.476Z,-0.85
2022-10-25T22:05:13.288Z,-0.88
2022-10-25T22:07:47.070Z,-0.94
2022-10-25T22:10:20.401Z,-0.90
2022-10-25T22:12:55.340Z,-0.95
2022-10-25T22:15:28.796Z,-0.95
2022-10-25T22:18:02.118Z,-0.98
2022-10-25T22:20:35.640Z,-1.04
2022-10-25T22:23:08.933Z,-1.07
2022-10-25T22:25:42.296Z,-1.08
2022-10-25T22:28:15.840Z,-1.07
2022-10-25T22:30:49.426Z,-1.09
2022-10-25T22:33:22.757Z,-1.15
2022-10-25T22:35:56.258Z,-1.19
2022-10-25T22:38:30.411Z,-1.21
2022-10-25T22:41:05.752Z,-1.26
2022-10-25T22:43:39.873Z,-1.21
2022-10-25T22:46:15.487Z,-1.18
2022-10-25T22:48:49.419Z,-1.17
2022-10-25T22:51:24.110Z,-1.13
2022-10-25T22:53:57.695Z,-1.13
2022-10-25T22:56:32.473Z,-1.11
2022-10-25T22:59:07.766Z,-1.11
2022-10-25T23:01:41.280Z,-1.12
2022-10-25T23:04:14.835Z,-1.12
2022-10-25T23:06:48.120Z,-1.11
2022-10-25T23:09:21.584Z,-1.06
2022-10-25T23:11:54.945Z,-1.02
2022-10-25T23:14:28.267Z,-0.98
2022-10-25T23:17:01.335Z,-0.93
2022-10-25T23:19:34.620Z,-0.89
2022-10-25T23:22:07.779Z,-0.80
2022-10-25T23:24:41.229Z,-0.69
2022-10-25T23:27:14.304Z,-0.59
2022-10-25T23:29:47.723Z,-0.54
2022-10-25T23:32:21.170Z,-0.48
2022-10-25T23:34:56.331Z,-0.47
2022-10-25T23:37:29.723Z,-0.46
2022-10-25T23:40:02.799Z,-0.44
2022-10-25T23:42:36.052Z,-0.51
2022-10-25T23:45:11.589Z,-0.50
2022-10-25T23:47:45.233Z,-0.46
2022-10-25T23:50:18.955Z,-0.40
2022-10-25T23:52:52.585Z,-0.38
2022-10-25T23:55:25.904Z,-0.37
2022-10-25T23:58:00.696Z,-0.40
